.
WxDataArchive / Data Records for 2009-04-06
2009-04-05 April 2009 2009-04-07

Data Records for Monday, 06 April 2009

Time	Temp	Chill	HIndex	Humid	Dewpt	 Wind 	HiWind	WindDir	Rain 	Barom 
-----	----	-----	------	-----	-----	------	------	-------	-----	----- 
00:00	35.3	35.3	35.3	93	33.5	1	3	22	0.01	29.547 
00:05	35.2	35.2	35.2	93	33.4	1	7	22	0.00	29.548 
00:10	35.2	35.2	35.2	93	33.4	1	5	90	0.01	29.545 
00:15	35.0	35.0	35.0	93	33.2	1	4	0	0.00	29.547 
00:20	34.9	34.9	34.9	94	33.4	2	7	45	0.01	29.544 
00:25	34.9	34.9	34.9	94	33.4	1	5	315	0.00	29.546 
00:30	34.7	34.7	34.7	94	33.2	1	7	90	0.00	29.545 
00:35	34.6	34.6	34.6	94	33.1	0	2	45	0.00	29.544 
00:40	34.3	34.3	34.3	94	32.8	1	4	22	0.00	29.547 
00:45	34.1	34.1	34.1	94	32.6	1	4	315	0.00	29.546 
00:50	33.8	33.8	33.8	94	32.3	0	2	338	0.00	29.544 
00:55	33.7	33.7	33.7	94	32.2	1	5	22	0.00	29.542 
01:00	33.5	33.5	33.5	94	32.0	1	3	22	0.00	29.543 
01:05	33.5	33.5	33.5	94	32.0	1	3	315	0.00	29.542 
01:10	33.5	33.5	33.5	94	32.0	1	3	0	0.00	29.540 
01:15	33.5	33.5	33.5	94	32.0	1	4	0	0.01	29.539 
01:20	33.5	33.5	33.5	94	32.0	0	2	315	0.00	29.539 
01:25	33.5	33.5	33.5	94	32.0	1	3	315	0.00	29.538 
01:30	33.7	33.7	33.7	94	32.2	0	3	22	0.00	29.537 
01:35	33.7	33.7	33.7	94	32.2	0	2	22	0.00	29.537 
01:40	33.5	33.5	33.5	94	32.0	1	3	22	0.00	29.538 
01:45	33.5	33.5	33.5	94	32.0	1	4	0	0.00	29.538 
01:50	33.5	33.5	33.5	94	32.0	1	4	292	0.00	29.539 
01:55	33.4	33.4	33.4	94	31.9	1	3	0	0.00	29.541 
02:00	33.2	33.2	33.2	94	31.7	1	3	0	0.00	29.540 
02:05	33.2	33.2	33.2	94	31.7	1	5	0	0.00	29.542 
02:10	33.1	33.1	33.1	94	31.6	1	5	45	0.00	29.543 
02:15	33.1	33.1	33.1	94	31.6	1	4	315	0.00	29.546 
02:20	32.9	32.9	32.9	94	31.4	0	3	270	0.00	29.546 
02:25	32.9	32.9	32.9	94	31.4	0	2	315	0.00	29.548 
02:30	32.8	32.8	32.8	94	31.3	0	2	270	0.00	29.551 
02:35	32.8	32.8	32.8	94	31.3	0	3	0	0.00	29.552 
02:40	32.8	32.8	32.8	94	31.3	0	3	270	0.00	29.553 
02:45	32.8	32.8	32.8	95	31.5	0	3	270	0.00	29.553 
02:50	32.8	32.8	32.8	95	31.5	0	2	270	0.00	29.554 
02:55	32.8	32.8	32.8	95	31.5	1	3	270	0.00	29.554 
03:00	32.9	32.9	32.9	95	31.6	1	2	270	0.00	29.556 
03:05	32.9	32.9	32.9	95	31.6	0	2	338	0.00	29.557 
03:10	32.9	32.9	32.9	95	31.6	0	2	270	0.00	29.560 
03:15	32.9	32.9	32.9	95	31.6	1	4	315	0.00	29.561 
03:20	32.9	32.9	32.9	95	31.6	1	5	315	0.00	29.563 
03:25	32.9	32.9	32.9	95	31.6	1	4	270	0.00	29.564 
03:30	32.9	32.9	32.9	95	31.6	1	3	338	0.00	29.565 
03:35	32.9	32.9	32.9	95	31.6	1	6	270	0.01	29.567 
03:40	33.1	33.1	33.1	95	31.8	1	2	270	0.00	29.568 
03:45	33.1	33.1	33.1	95	31.8	1	4	270	0.00	29.569 
03:50	33.1	33.1	33.1	95	31.8	1	2	270	0.00	29.569 
03:55	33.1	33.1	33.1	95	31.8	1	4	292	0.00	29.571 
04:00	33.1	33.1	33.1	95	31.8	1	3	292	0.00	29.574 
04:05	32.9	32.9	32.9	95	31.6	1	5	292	0.00	29.578 
04:10	32.9	32.9	32.9	95	31.6	2	5	315	0.00	29.581 
04:15	32.9	32.9	32.9	95	31.6	1	4	270	0.00	29.583 
04:20	32.9	32.9	32.9	95	31.6	2	6	270	0.00	29.584 
04:25	32.9	32.9	32.9	95	31.6	1	3	315	0.00	29.585 
04:30	32.9	32.9	32.9	95	31.6	1	2	315	0.00	29.586 
04:35	33.1	33.1	33.1	95	31.8	2	9	315	0.00	29.586 
04:40	33.1	33.1	33.1	95	31.8	1	4	338	0.00	29.586 
04:45	33.1	33.1	33.1	95	31.8	2	6	315	0.01	29.586 
04:50	33.1	33.1	33.1	95	31.8	1	5	292	0.00	29.587 
04:55	33.1	33.1	33.1	95	31.8	1	3	338	0.00	29.587 
05:00	33.1	33.1	33.1	95	31.8	1	5	292	0.00	29.589 
05:05	32.9	32.9	32.9	95	31.6	1	5	315	0.00	29.592 
05:10	32.9	32.9	32.9	95	31.6	1	4	338	0.00	29.592 
05:15	32.9	32.9	32.9	95	31.6	1	4	270	0.00	29.593 
05:20	32.8	32.8	32.8	95	31.5	1	3	315	0.00	29.597 
05:25	32.8	32.8	32.8	95	31.5	1	5	292	0.00	29.599 
05:30	32.8	32.8	32.8	95	31.5	2	6	0	0.00	29.602 
05:35	32.8	32.8	32.8	95	31.5	2	4	292	0.00	29.602 
05:40	32.8	32.8	32.8	95	31.5	1	3	292	0.00	29.603 
05:45	32.8	32.8	32.8	95	31.5	1	3	315	0.00	29.605 
05:50	32.8	32.8	32.8	95	31.5	1	3	292	0.00	29.606 
05:55	32.8	32.8	32.8	95	31.5	1	5	315	0.00	29.609 
06:00	32.8	32.8	32.8	95	31.5	1	7	248	0.00	29.612 
06:05	32.8	32.8	32.8	95	31.5	1	4	315	0.00	29.615 
06:10	32.8	32.8	32.8	95	31.5	1	3	270	0.00	29.617 
06:15	32.8	32.8	32.8	95	31.5	1	2	315	0.00	29.619 
06:20	32.8	32.8	32.8	95	31.5	1	3	0	0.00	29.619 
06:25	32.9	32.9	32.9	95	31.6	1	3	292	0.00	29.620 
06:30	32.9	32.9	32.9	95	31.6	1	5	270	0.00	29.622 
06:35	32.9	32.9	32.9	95	31.6	1	3	0	0.00	29.623 
06:40	32.9	32.9	32.9	95	31.6	1	5	315	0.00	29.626 
06:45	32.9	32.9	32.9	95	31.6	1	5	270	0.00	29.631 
06:50	32.9	32.9	32.9	95	31.6	1	4	338	0.00	29.631 
06:55	32.9	32.9	32.9	95	31.6	1	3	315	0.01	29.634 
07:00	33.1	33.1	33.1	95	31.8	1	6	270	0.00	29.635 
07:05	33.1	33.1	33.1	95	31.8	1	4	270	0.00	29.637 
07:10	33.1	33.1	33.1	95	31.8	1	5	270	0.00	29.637 
07:15	33.1	33.1	33.1	95	31.8	1	4	292	0.00	29.639 
07:20	33.1	33.1	33.1	95	31.8	1	4	315	0.00	29.640 
07:25	33.1	33.1	33.1	95	31.8	2	6	270	0.00	29.641 
07:30	33.1	33.1	33.1	95	31.8	1	3	270	0.01	29.644 
07:35	33.2	33.2	33.2	95	31.9	1	5	270	0.00	29.645 
07:40	33.2	33.2	33.2	95	31.9	1	4	292	0.00	29.647 
07:45	33.4	33.4	33.4	95	32.1	1	3	0	0.00	29.647 
07:50	33.4	33.4	33.4	95	32.1	1	7	0	0.01	29.649 
07:55	33.4	33.4	33.4	95	32.1	2	5	338	0.00	29.648 
08:00	33.4	33.4	33.4	95	32.1	1	6	292	0.00	29.649 
08:05	33.5	33.5	33.5	95	32.2	1	3	338	0.00	29.648 
08:10	33.5	33.5	33.5	95	32.2	1	4	315	0.01	29.648 
08:15	33.7	33.7	33.7	95	32.4	1	4	292	0.00	29.647 
08:20	33.7	33.7	33.7	95	32.4	1	4	292	0.01	29.647 
08:25	33.8	33.8	33.8	95	32.5	2	6	292	0.00	29.648 
08:30	33.8	33.8	33.8	95	32.5	2	4	338	0.00	29.648 
08:35	34.0	34.0	34.0	94	32.5	2	5	315	0.01	29.649 
08:40	34.1	34.1	34.1	94	32.6	1	6	315	0.00	29.650 
08:45	34.1	34.1	34.1	94	32.6	2	9	338	0.01	29.649 
08:50	34.3	34.3	34.3	94	32.8	2	7	270	0.00	29.650 
08:55	34.4	34.4	34.4	94	32.9	2	5	315	0.00	29.651 
09:00	34.6	34.6	34.6	94	33.1	1	6	292	0.01	29.651 
09:05	34.7	34.7	34.7	93	32.9	2	6	315	0.00	29.652 
09:10	34.9	34.9	34.9	93	33.1	2	6	315	0.00	29.655 
09:15	34.9	34.9	34.9	93	33.1	2	5	270	0.01	29.659 
09:20	35.0	35.0	35.0	92	32.9	1	6	270	0.00	29.660 
09:25	35.0	35.0	35.0	92	32.9	2	6	292	0.01	29.663 
09:30	35.0	35.0	35.0	92	32.9	3	9	338	0.00	29.664 
09:35	35.0	35.0	35.0	91	32.6	2	6	315	0.00	29.665 
09:40	35.2	35.2	35.2	91	32.8	3	6	315	0.00	29.666 
09:45	35.3	35.3	35.3	90	32.7	2	5	292	0.01	29.667 
09:50	35.6	35.6	35.6	89	32.7	3	9	292	0.00	29.666 
09:55	35.8	35.8	35.8	88	32.6	3	9	270	0.00	29.666 
10:00	35.9	35.9	35.9	88	32.7	3	11	315	0.00	29.666 
10:05	35.9	35.9	35.9	87	32.4	2	7	315	0.01	29.670 
10:10	36.2	36.2	36.2	87	32.7	2	7	338	0.00	29.673 
10:15	36.2	36.2	36.2	85	32.1	3	10	338	0.00	29.672 
10:20	36.3	36.3	36.3	85	32.2	3	9	315	0.00	29.673 
10:25	36.5	36.5	36.5	84	32.1	2	5	0	0.00	29.673 
10:30	36.5	36.5	36.5	84	32.1	3	8	315	0.00	29.680 
10:35	36.5	36.5	36.5	83	31.8	2	7	292	0.00	29.680 
10:40	36.5	36.5	36.5	82	31.5	2	5	315	0.00	29.681 
10:45	36.5	36.5	36.5	82	31.5	2	6	338	0.00	29.682 
10:50	36.6	36.6	36.6	83	31.9	1	5	0	0.00	29.683 
10:55	36.3	36.3	36.3	81	31.0	3	9	338	0.00	29.684 
11:00	36.3	36.3	36.3	82	31.3	3	9	292	0.00	29.684 
11:05	36.5	36.5	36.5	82	31.5	1	5	22	0.00	29.687 
11:10	36.5	36.5	36.5	81	31.2	2	5	338	0.00	29.688 
11:15	36.3	36.3	36.3	81	31.0	3	12	292	0.00	29.692 
11:20	36.3	36.3	36.3	82	31.3	2	6	338	0.00	29.693 
11:25	36.3	36.3	36.3	82	31.3	2	7	315	0.00	29.695 
11:30	36.5	36.5	36.5	82	31.5	2	9	0	0.00	29.692 
11:35	36.5	36.5	36.5	81	31.2	3	10	292	0.00	29.695 
11:40	36.5	36.5	36.5	81	31.2	3	7	315	0.00	29.694 
11:45	36.8	36.8	36.8	81	31.5	2	7	270	0.00	29.695 
11:50	36.6	36.6	36.6	81	31.3	2	6	338	0.00	29.695 
11:55	36.8	36.8	36.8	81	31.5	2	10	338	0.00	29.695 
12:00	37.0	37.0	37.0	78	30.8	3	8	292	0.00	29.696 
12:05	37.3	37.3	37.3	79	31.4	2	7	338	0.00	29.699 
12:10	37.5	37.5	37.5	78	31.3	3	7	292	0.00	29.698 
12:15	37.5	34.4	37.5	76	30.6	4	9	315	0.00	29.699 
12:20	37.5	34.4	37.5	76	30.6	4	10	292	0.00	29.698 
12:25	37.8	37.8	37.8	77	31.2	2	7	270	0.00	29.698 
12:30	38.0	38.0	38.0	77	31.4	2	5	0	0.00	29.698 
12:35	38.2	38.2	38.2	75	31.0	2	7	338	0.00	29.699 
12:40	38.0	38.0	38.0	75	30.8	2	7	338	0.00	29.699 
12:45	38.2	38.2	38.2	74	30.7	3	9	315	0.00	29.699 
12:50	38.3	38.3	38.3	74	30.8	2	7	0	0.00	29.701 
12:55	38.5	38.5	38.5	73	30.6	3	7	0	0.00	29.700 
13:00	38.5	38.5	38.5	73	30.6	3	9	270	0.00	29.700 
13:05	38.8	38.8	38.8	72	30.6	2	8	338	0.00	29.701 
13:10	39.3	39.3	39.3	71	30.7	2	4	270	0.00	29.701 
13:15	39.5	39.5	39.5	69	30.2	3	7	338	0.00	29.702 
13:20	39.3	39.3	39.3	67	29.3	2	7	0	0.00	29.701 
13:25	39.5	39.5	39.5	68	29.8	2	6	0	0.00	29.701 
13:30	39.8	39.8	39.8	65	29.0	3	13	292	0.00	29.701 
13:35	39.6	36.9	39.6	63	28.1	4	12	315	0.00	29.702 
13:40	39.6	36.9	39.6	63	28.1	4	11	315	0.00	29.703 
13:45	39.8	39.8	39.8	62	27.9	3	6	0	0.00	29.701 
13:50	39.9	39.9	39.9	61	27.6	3	13	315	0.00	29.702 
13:55	40.3	40.3	40.3	63	28.7	2	6	338	0.00	29.701 
14:00	40.5	40.5	40.5	58	26.9	3	13	0	0.00	29.700 
14:05	40.9	40.9	40.9	60	28.1	2	10	0	0.00	29.699 
14:10	40.9	40.9	40.9	59	27.7	3	10	338	0.00	29.699 
14:15	41.1	41.1	41.1	58	27.5	3	10	315	0.00	29.698 
14:20	40.9	40.9	40.9	58	27.3	3	7	338	0.00	29.698 
14:25	41.1	41.1	41.1	58	27.5	3	7	0	0.00	29.697 
14:30	41.6	41.6	41.6	57	27.5	3	10	338	0.00	29.695 
14:35	41.5	39.1	41.5	57	27.4	4	13	270	0.00	29.696 
14:40	41.3	41.3	41.3	56	26.8	3	9	315	0.00	29.695 
14:45	41.1	41.1	41.1	56	26.6	3	7	292	0.00	29.696 
14:50	40.9	40.9	40.9	55	26.0	3	7	315	0.00	29.694 
14:55	40.8	40.8	40.8	54	25.5	3	8	338	0.00	29.692 
15:00	40.9	40.9	40.9	55	26.0	3	6	338	0.00	29.691 
15:05	41.2	41.2	41.2	56	26.7	2	7	270	0.00	29.691 
15:10	41.2	41.2	41.2	58	27.6	2	6	270	0.00	29.697 
15:15	40.3	40.3	40.3	62	28.3	3	7	270	0.00	29.698 
15:20	39.8	39.8	39.8	64	28.6	3	7	315	0.00	29.701 
15:25	39.5	39.5	39.5	64	28.3	3	9	292	0.00	29.701 
15:30	39.5	39.5	39.5	65	28.7	2	6	292	0.00	29.702 
15:35	39.5	39.5	39.5	65	28.7	2	7	315	0.00	29.702 
15:40	39.3	39.3	39.3	65	28.5	2	6	315	0.00	29.704 
15:45	39.1	39.1	39.1	66	28.7	3	11	315	0.00	29.710 
15:50	38.5	35.6	38.5	66	28.1	4	9	315	0.00	29.708 
15:55	38.3	38.3	38.3	68	28.7	3	10	270	0.00	29.714 
16:00	38.2	35.2	38.2	67	28.2	4	7	338	0.00	29.716 
16:05	38.2	35.2	38.2	67	28.2	4	10	270	0.00	29.716 
16:10	38.3	38.3	38.3	67	28.3	3	8	270	0.00	29.717 
16:15	38.5	38.5	38.5	66	28.1	3	7	248	0.00	29.716 
16:20	38.5	38.5	38.5	66	28.1	3	9	315	0.00	29.715 
16:25	38.3	35.4	38.3	66	28.0	4	12	270	0.00	29.718 
16:30	38.3	38.3	38.3	65	27.6	3	10	315	0.00	29.720 
16:35	38.3	38.3	38.3	65	27.6	3	14	338	0.00	29.720 
16:40	38.2	38.2	38.2	65	27.5	3	9	315	0.00	29.721 
16:45	38.2	38.2	38.2	66	27.9	3	6	270	0.00	29.724 
16:50	38.2	38.2	38.2	64	27.1	3	8	315	0.00	29.728 
16:55	38.2	38.2	38.2	65	27.5	3	7	270	0.00	29.727 
17:00	38.2	38.2	38.2	63	26.7	3	7	338	0.00	29.728 
17:05	38.3	38.3	38.3	60	25.6	3	7	292	0.00	29.731 
17:10	38.3	38.3	38.3	61	26.0	3	6	270	0.00	29.731 
17:15	38.6	38.6	38.6	60	25.9	3	6	338	0.00	29.730 
17:20	38.6	38.6	38.6	58	25.1	3	7	315	0.00	29.732 
17:25	38.3	35.4	38.3	57	24.4	4	12	315	0.00	29.733 
17:30	38.0	35.0	38.0	57	24.1	4	11	315	0.00	29.738 
17:35	38.0	38.0	38.0	56	23.7	3	7	270	0.00	29.737 
17:40	38.0	38.0	38.0	57	24.1	3	6	270	0.00	29.739 
17:45	38.6	38.6	38.6	58	25.1	2	7	270	0.00	29.737 
17:50	38.8	35.9	38.8	55	24.0	4	9	270	0.00	29.741 
17:55	38.3	35.4	38.3	54	23.1	4	8	315	0.00	29.745 
18:00	38.0	38.0	38.0	53	22.4	3	9	292	0.00	29.748 
18:05	37.8	34.8	37.8	54	22.7	4	10	270	0.00	29.748 
18:10	37.5	34.4	37.5	54	22.4	4	11	270	0.00	29.749 
18:15	37.2	37.2	37.2	54	22.1	3	10	292	0.00	29.750 
18:20	36.9	33.7	36.9	54	21.8	4	7	270	0.00	29.751 
18:25	36.6	36.6	36.6	56	22.4	3	9	270	0.00	29.753 
18:30	36.2	36.2	36.2	56	22.0	3	7	270	0.00	29.756 
18:35	35.9	32.6	35.9	57	22.2	4	9	315	0.00	29.761 
18:40	35.6	35.6	35.6	58	22.3	3	7	315	0.00	29.762 
18:45	35.3	35.3	35.3	58	22.0	3	9	270	0.00	29.764 
18:50	35.0	35.0	35.0	59	22.1	3	6	292	0.00	29.766 
18:55	34.9	34.9	34.9	59	22.0	3	5	315	0.00	29.767 
19:00	34.4	34.4	34.4	59	21.6	3	10	292	0.00	29.767 
19:05	34.1	34.1	34.1	60	21.7	2	6	315	0.00	29.770 
19:10	34.0	34.0	34.0	60	21.6	2	5	315	0.00	29.770 
19:15	33.8	33.8	33.8	61	21.8	3	6	315	0.00	29.771 
19:20	33.8	33.8	33.8	62	22.2	2	6	315	0.00	29.771 
19:25	33.7	33.7	33.7	62	22.1	1	4	338	0.00	29.773 
19:30	33.5	33.5	33.5	63	22.3	2	6	292	0.00	29.775 
19:35	33.5	33.5	33.5	63	22.3	2	5	270	0.00	29.776 
19:40	33.4	33.4	33.4	63	22.2	2	7	270	0.00	29.775 
19:45	33.4	33.4	33.4	63	22.2	2	4	338	0.00	29.775 
19:50	33.4	33.4	33.4	63	22.2	2	6	315	0.00	29.775 
19:55	33.2	33.2	33.2	63	22.0	2	5	270	0.00	29.781 
20:00	33.2	33.2	33.2	62	21.6	1	4	315	0.00	29.780 
20:05	33.2	33.2	33.2	62	21.6	3	7	270	0.00	29.779 
20:10	33.2	33.2	33.2	61	21.2	2	9	292	0.00	29.781 
20:15	33.1	33.1	33.1	61	21.1	2	6	270	0.00	29.783 
20:20	33.1	33.1	33.1	60	20.7	2	6	270	0.00	29.783 
20:25	33.1	33.1	33.1	59	20.4	3	6	338	0.00	29.783 
20:30	33.1	33.1	33.1	59	20.4	2	5	292	0.00	29.783 
20:35	33.1	33.1	33.1	58	20.0	2	6	315	0.00	29.784 
20:40	33.1	33.1	33.1	58	20.0	2	5	315	0.00	29.784 
20:45	32.9	32.9	32.9	58	19.8	2	7	338	0.00	29.785 
20:50	32.9	32.9	32.9	57	19.4	2	6	315	0.00	29.785 
20:55	32.9	32.9	32.9	57	19.4	1	4	315	0.00	29.785 
21:00	32.9	32.9	32.9	58	19.8	2	5	292	0.00	29.786 
21:05	32.8	32.8	32.8	58	19.7	1	5	315	0.00	29.786 
21:10	32.8	32.8	32.8	58	19.7	2	6	292	0.00	29.785 
21:15	32.8	32.8	32.8	58	19.7	2	7	338	0.00	29.785 
21:20	32.8	32.8	32.8	58	19.7	2	5	292	0.00	29.784 
21:25	32.8	32.8	32.8	58	19.7	2	5	315	0.00	29.786 
21:30	32.8	32.8	32.8	58	19.7	2	7	338	0.00	29.785 
21:35	32.8	32.8	32.8	58	19.7	2	5	0	0.00	29.784 
21:40	32.7	32.7	32.7	58	19.6	1	4	315	0.00	29.784 
21:45	32.5	32.5	32.5	59	19.8	1	4	315	0.00	29.784 
21:50	32.5	32.5	32.5	58	19.4	2	7	270	0.00	29.782 
21:55	32.5	32.5	32.5	58	19.4	2	5	315	0.00	29.783 
22:00	32.5	32.5	32.5	58	19.4	1	4	315	0.00	29.783 
22:05	32.4	32.4	32.4	59	19.7	1	5	338	0.00	29.783 
22:10	32.4	32.4	32.4	58	19.3	2	5	270	0.00	29.784 
22:15	32.2	32.2	32.2	58	19.1	2	6	315	0.00	29.784 
22:20	32.1	32.1	32.1	59	19.4	2	5	338	0.00	29.784 
22:25	32.1	32.1	32.1	59	19.4	2	6	315	0.00	29.784 
22:30	31.9	31.9	31.9	59	19.2	2	7	270	0.00	29.784 
22:35	31.9	31.9	31.9	59	19.2	2	5	315	0.00	29.783 
22:40	31.8	31.8	31.8	60	19.5	2	5	315	0.00	29.782 
22:45	31.6	31.6	31.6	60	19.3	2	5	270	0.00	29.783 
22:50	31.5	31.5	31.5	60	19.2	2	7	270	0.00	29.783 
22:55	31.5	31.5	31.5	60	19.2	1	3	315	0.00	29.782 
23:00	31.3	31.3	31.3	61	19.4	2	5	270	0.00	29.784 
23:05	31.3	31.3	31.3	61	19.4	1	5	338	0.00	29.783 
23:10	31.3	31.3	31.3	61	19.4	1	4	315	0.00	29.782 
23:15	31.3	31.3	31.3	62	19.8	1	3	292	0.00	29.783 
23:20	31.3	31.3	31.3	62	19.8	1	4	270	0.00	29.782 
23:25	31.3	31.3	31.3	62	19.8	2	5	338	0.00	29.782 
23:30	31.3	31.3	31.3	62	19.8	1	5	315	0.00	29.783 
23:35	31.2	31.2	31.2	62	19.7	2	5	0	0.00	29.783 
23:40	31.0	31.0	31.0	62	19.5	3	9	315	0.00	29.783 
23:45	30.9	30.9	30.9	62	19.4	3	7	292	0.00	29.781 
23:50	30.9	30.9	30.9	63	19.8	2	5	338	0.00	29.782 
23:55	30.7	30.7	30.7	64	20.0	2	6	338	0.00	29.782 

CoCoRaHS
IN-AL-39
A2 Web Hosting
Creative Commons License
GoDaddy
search engine by freefind advanced

loaded 2018-11-14 04:27:46 • last modified 2010-11-18 10:43:29
Privacy PolicyDisclaimer
• wx.awcolley.com is powered by PmWiki v.2002016 •
• all content (unless otherwise noted) © 2018 A W Colley